createdAt,value
2022-12-27T00:00:09.541Z,6.00
2022-12-27T00:02:57.789Z,5.50
2022-12-27T00:05:26.216Z,4.00
2022-12-27T00:07:55.818Z,7.00
2022-12-27T00:10:24.074Z,5.50
2022-12-27T00:12:53.441Z,5.00
2022-12-27T00:15:21.656Z,5.67
2022-12-27T00:17:50.031Z,4.00
2022-12-27T00:20:18.367Z,4.75
2022-12-27T00:22:46.570Z,5.67
2022-12-27T00:25:14.830Z,8.00
2022-12-27T00:27:43.228Z,5.00
2022-12-27T00:30:12.126Z,5.67
2022-12-27T00:32:40.289Z,5.33
2022-12-27T00:35:08.974Z,5.00
2022-12-27T00:37:37.209Z,5.33
2022-12-27T00:40:05.797Z,6.00
2022-12-27T00:42:34.031Z,6.50
2022-12-27T00:45:02.309Z,4.33
2022-12-27T00:47:30.558Z,4.00
2022-12-27T00:49:58.742Z,5.00
2022-12-27T00:52:26.964Z,2.50
2022-12-27T00:54:55.159Z,5.50
2022-12-27T00:57:23.357Z,6.00
2022-12-27T00:59:51.594Z,5.00
2022-12-27T01:02:19.898Z,6.67
2022-12-27T01:04:48.051Z,6.00
2022-12-27T01:07:16.263Z,6.33
2022-12-27T01:09:44.481Z,6.00
2022-12-27T01:12:12.672Z,6.00
2022-12-27T01:14:41.339Z,5.00
2022-12-27T01:17:09.699Z,5.25
2022-12-27T01:19:38.743Z,7.00
2022-12-27T01:22:07.636Z,6.00
2022-12-27T01:24:35.893Z,6.00
2022-12-27T01:27:04.322Z,5.00
2022-12-27T01:29:32.590Z,5.00
2022-12-27T01:32:00.904Z,5.00
2022-12-27T01:34:29.416Z,6.00
2022-12-27T01:36:57.688Z,7.50
2022-12-27T01:39:25.895Z,6.00
2022-12-27T01:42:12.710Z,3.50
2022-12-27T01:44:44.202Z,5.00
2022-12-27T01:47:23.360Z,6.00
2022-12-27T01:50:08.545Z,6.00
2022-12-27T01:52:48.509Z,4.00
2022-12-27T01:55:21.267Z,5.67
2022-12-27T01:57:50.481Z,5.50
2022-12-27T02:00:18.782Z,5.00
2022-12-27T02:02:47.277Z,5.33
2022-12-27T02:05:17.984Z,6.67
2022-12-27T02:08:00.822Z,2.00
2022-12-27T02:10:29.864Z,5.67
2022-12-27T02:12:58.581Z,5.00
2022-12-27T02:15:26.939Z,5.00
2022-12-27T02:17:55.147Z,5.25
2022-12-27T02:20:24.961Z,4.33
2022-12-27T02:23:39.924Z,5.25
2022-12-27T02:26:31.272Z,6.00
2022-12-27T02:29:07.890Z,5.00
2022-12-27T02:31:41.037Z,7.00
2022-12-27T02:34:27.042Z,5.50
2022-12-27T02:36:59.648Z,6.00
2022-12-27T02:39:29.879Z,6.50
2022-12-27T02:42:16.536Z,4.00
2022-12-27T02:45:03.524Z,6.00
2022-12-27T02:47:51.224Z,4.00
2022-12-27T02:50:37.807Z,5.00
2022-12-27T02:53:30.818Z,6.33
2022-12-27T02:56:33.922Z,6.00
2022-12-27T02:59:24.134Z,6.00
2022-12-27T03:02:20.017Z,6.00
2022-12-27T03:05:08.505Z,3.00
2022-12-27T03:07:36.756Z,5.00
2022-12-27T03:10:29.330Z,7.33
2022-12-27T03:13:28.226Z,6.00
2022-12-27T03:16:02.495Z,4.00
2022-12-27T03:18:55.114Z,5.00
2022-12-27T03:21:57.227Z,5.00
2022-12-27T03:24:50.011Z,4.00
2022-12-27T03:27:28.683Z,6.00
2022-12-27T03:30:17.168Z,4.00
2022-12-27T03:33:14.577Z,5.50
2022-12-27T03:36:14.224Z,4.50
2022-12-27T03:38:49.212Z,3.50
2022-12-27T03:42:00.497Z,4.75
2022-12-27T03:44:28.811Z,3.67
2022-12-27T03:47:04.411Z,5.50
2022-12-27T03:49:37.844Z,5.00
2022-12-27T03:52:14.935Z,7.00
2022-12-27T03:54:44.714Z,5.00
2022-12-27T03:57:15.407Z,4.00
2022-12-27T03:59:43.973Z,5.00
2022-12-27T04:02:13.071Z,3.00
2022-12-27T04:04:41.779Z,4.00
2022-12-27T04:07:11.506Z,5.00
2022-12-27T04:09:58.101Z,6.50
2022-12-27T04:12:44.692Z,4.50
2022-12-27T04:15:31.828Z,5.00
2022-12-27T04:18:18.553Z,5.00
2022-12-27T04:21:05.402Z,7.50
2022-12-27T04:23:52.046Z,8.00
2022-12-27T04:26:38.513Z,6.33
2022-12-27T04:29:25.415Z,5.00
2022-12-27T04:32:12.156Z,5.50
2022-12-27T04:34:49.189Z,8.00
2022-12-27T04:37:19.149Z,7.00
2022-12-27T04:40:11.423Z,3.00
2022-12-27T04:42:58.203Z,6.00
2022-12-27T04:45:44.838Z,6.50
2022-12-27T04:48:33.634Z,5.50
2022-12-27T04:51:20.247Z,5.33
2022-12-27T04:54:06.940Z,5.00
2022-12-27T04:56:35.167Z,4.50
2022-12-27T04:59:21.785Z,4.00
2022-12-27T05:02:05.388Z,4.00
2022-12-27T05:04:36.072Z,6.00
2022-12-27T05:07:25.200Z,4.33
2022-12-27T05:10:11.965Z,4.33
2022-12-27T05:12:58.537Z,6.50
2022-12-27T05:15:26.807Z,5.00
2022-12-27T05:17:57.214Z,6.25
2022-12-27T05:20:25.475Z,5.50
2022-12-27T05:23:12.461Z,5.33
2022-12-27T05:25:42.777Z,4.00
2022-12-27T05:28:12.206Z,5.67
2022-12-27T05:30:42.231Z,6.00
2022-12-27T05:33:10.614Z,5.75
2022-12-27T05:35:39.550Z,5.00
2022-12-27T05:38:07.909Z,7.50
2022-12-27T05:40:36.466Z,7.00
2022-12-27T05:43:04.841Z,6.00
2022-12-27T05:45:33.215Z,5.50
2022-12-27T05:48:01.564Z,7.50
2022-12-27T05:50:29.876Z,4.50
2022-12-27T05:52:58.122Z,5.50
2022-12-27T05:55:26.287Z,5.00
2022-12-27T05:57:54.822Z,5.00
2022-12-27T06:00:23.116Z,5.50
2022-12-27T06:02:52.137Z,7.00
2022-12-27T06:05:20.715Z,5.00
2022-12-27T06:07:48.977Z,5.00
2022-12-27T06:10:17.286Z,5.00
2022-12-27T06:12:45.586Z,7.00
2022-12-27T06:15:13.861Z,8.00
2022-12-27T06:17:44.128Z,6.67
2022-12-27T06:20:12.426Z,6.00
2022-12-27T06:22:40.629Z,5.33
2022-12-27T06:25:14.030Z,5.00
2022-12-27T06:27:42.758Z,5.00
2022-12-27T06:30:12.437Z,6.00
2022-12-27T06:32:40.703Z,5.67
2022-12-27T06:35:11.010Z,3.33
2022-12-27T06:37:39.691Z,4.00
2022-12-27T06:40:09.754Z,8.00
2022-12-27T06:42:37.993Z,8.00
2022-12-27T06:45:07.367Z,7.00
2022-12-27T06:47:35.721Z,8.00
2022-12-27T06:50:04.626Z,5.50
2022-12-27T06:52:32.835Z,6.00
2022-12-27T06:55:01.190Z,5.00
2022-12-27T06:57:29.402Z,6.00
2022-12-27T06:59:57.691Z,8.00
2022-12-27T07:02:26.021Z,7.33
2022-12-27T07:04:54.384Z,7.50
2022-12-27T07:07:22.581Z,11.00
2022-12-27T07:09:50.823Z,12.67
2022-12-27T07:12:19.067Z,11.75
2022-12-27T07:14:47.335Z,14.00
2022-12-27T07:17:15.601Z,13.00
2022-12-27T07:19:44.022Z,12.50
2022-12-27T07:22:12.239Z,9.75
2022-12-27T07:24:40.455Z,8.50
2022-12-27T07:27:08.765Z,12.00
2022-12-27T07:29:41.916Z,9.50
2022-12-27T07:32:13.666Z,10.50
2022-12-27T07:34:42.001Z,9.00
2022-12-27T07:37:10.235Z,13.00
2022-12-27T07:39:38.473Z,8.00
2022-12-27T07:42:08.712Z,13.00
2022-12-27T07:44:37.286Z,6.00
2022-12-27T07:47:07.717Z,10.67
2022-12-27T07:49:35.917Z,18.00
2022-12-27T07:52:04.336Z,31.00
2022-12-27T07:54:32.663Z,20.00
2022-12-27T07:57:00.979Z,11.50
2022-12-27T07:59:29.200Z,12.33
2022-12-27T08:02:06.553Z,13.00
2022-12-27T08:04:37.472Z,15.50
2022-12-27T08:07:13.580Z,12.67
2022-12-27T08:09:43.735Z,11.00
2022-12-27T08:12:13.720Z,13.00
2022-12-27T08:14:42.462Z,11.00
2022-12-27T08:17:21.047Z,10.50
2022-12-27T08:19:52.215Z,23.00
2022-12-27T08:22:21.347Z,12.00
2022-12-27T08:24:49.891Z,11.00
2022-12-27T08:27:22.917Z,13.00
2022-12-27T08:29:51.179Z,12.67
2022-12-27T08:32:19.463Z,11.00
2022-12-27T08:34:47.760Z,13.67
2022-12-27T08:37:16.122Z,17.50
2022-12-27T08:39:44.276Z,13.00
2022-12-27T08:42:13.848Z,14.00
2022-12-27T08:44:42.099Z,10.00
2022-12-27T08:47:10.420Z,13.67
2022-12-27T08:49:38.567Z,14.00
2022-12-27T08:52:07.035Z,13.00
2022-12-27T08:54:35.291Z,17.00
2022-12-27T08:57:03.582Z,12.00
2022-12-27T08:59:33.495Z,14.00
2022-12-27T09:02:01.944Z,10.00
2022-12-27T09:04:32.868Z,14.67
2022-12-27T09:07:04.021Z,10.25
2022-12-27T09:09:32.350Z,15.00
2022-12-27T09:12:03.058Z,14.00
2022-12-27T09:14:35.068Z,21.50
2022-12-27T09:17:03.331Z,15.00
2022-12-27T09:19:32.828Z,8.67
2022-12-27T09:22:01.185Z,16.00
2022-12-27T09:24:32.528Z,13.00
2022-12-27T09:27:00.830Z,12.00
2022-12-27T09:29:29.062Z,17.33
2022-12-27T09:31:57.351Z,18.00
2022-12-27T09:34:25.717Z,14.00
2022-12-27T09:36:53.925Z,15.33
2022-12-27T09:39:22.194Z,15.50
2022-12-27T09:44:47.259Z,18.33
2022-12-27T09:47:16.150Z,20.00
2022-12-27T09:49:53.851Z,14.00
2022-12-27T09:52:36.042Z,14.00
2022-12-27T09:55:20.055Z,13.00
2022-12-27T09:57:48.967Z,13.00
2022-12-27T10:00:34.820Z,12.50
2022-12-27T10:03:07.296Z,15.00
2022-12-27T10:05:37.535Z,12.00
2022-12-27T10:08:21.069Z,14.67
2022-12-27T10:11:03.547Z,13.00
2022-12-27T10:13:44.313Z,17.00
2022-12-27T10:16:50.100Z,15.75
2022-12-27T10:19:43.940Z,15.00
2022-12-27T10:23:00.113Z,17.00
2022-12-27T10:25:31.738Z,29.00
2022-12-27T10:28:05.619Z,34.00
2022-12-27T10:30:33.814Z,38.00
2022-12-27T10:33:02.237Z,28.50
2022-12-27T10:35:30.558Z,35.00
2022-12-27T10:38:01.863Z,50.67
2022-12-27T10:40:39.869Z,85.00
2022-12-27T10:43:37.163Z,71.00
2022-12-27T10:46:21.199Z,63.00
2022-12-27T10:51:47.117Z,69.50
2022-12-27T10:54:28.418Z,60.67
2022-12-27T10:57:15.822Z,61.00
2022-12-27T10:59:44.091Z,56.50
2022-12-27T11:02:19.889Z,53.00
2022-12-27T11:05:11.196Z,53.00
2022-12-27T11:07:39.438Z,51.00
2022-12-27T11:10:17.070Z,53.33
2022-12-27T11:13:18.401Z,51.00
2022-12-27T11:15:58.469Z,49.00
2022-12-27T11:18:27.099Z,48.00
2022-12-27T11:20:57.618Z,47.00
2022-12-27T11:23:32.370Z,48.00
2022-12-27T11:26:02.570Z,47.00
2022-12-27T11:28:39.708Z,47.00
2022-12-27T11:31:13.963Z,44.00
2022-12-27T11:33:49.487Z,44.00
2022-12-27T11:36:34.061Z,44.00
2022-12-27T11:39:02.427Z,38.00
2022-12-27T11:41:37.445Z,41.00
2022-12-27T11:44:08.600Z,43.00
2022-12-27T11:47:26.252Z,42.00
2022-12-27T11:50:02.673Z,45.00
2022-12-27T11:52:40.025Z,41.00
2022-12-27T11:55:46.589Z,41.00
2022-12-27T11:58:36.084Z,43.00
2022-12-27T12:01:28.684Z,37.00
2022-12-27T12:04:06.745Z,43.00
2022-12-27T12:06:34.878Z,43.00
2022-12-27T12:09:15.212Z,42.00
2022-12-27T12:12:07.849Z,42.50
2022-12-27T12:14:42.689Z,42.00
2022-12-27T12:17:48.809Z,40.00
2022-12-27T12:20:54.636Z,42.00
2022-12-27T12:23:42.369Z,42.00
2022-12-27T12:26:17.474Z,44.00
2022-12-27T12:29:22.679Z,43.00
2022-12-27T12:32:29.348Z,44.00
2022-12-27T12:35:25.184Z,40.00
2022-12-27T12:38:23.064Z,41.50
2022-12-27T12:41:07.944Z,39.50
2022-12-27T12:44:04.340Z,39.00
2022-12-27T12:46:46.406Z,42.00
2022-12-27T12:49:52.195Z,40.00
2022-12-27T12:52:35.334Z,41.00
2022-12-27T12:55:26.190Z,42.00
2022-12-27T12:58:17.781Z,37.00
2022-12-27T13:01:14.514Z,41.50
2022-12-27T13:04:13.391Z,41.00
2022-12-27T13:07:09.161Z,41.00
2022-12-27T13:09:40.430Z,40.00
2022-12-27T13:12:32.635Z,36.00
2022-12-27T13:15:07.018Z,39.00
2022-12-27T13:17:52.962Z,39.33
2022-12-27T13:20:55.064Z,39.00
2022-12-27T13:23:36.890Z,39.00
2022-12-27T13:26:20.676Z,40.50
2022-12-27T13:29:29.750Z,36.00
2022-12-27T13:32:00.638Z,38.00
2022-12-27T13:34:31.522Z,37.00
2022-12-27T13:37:15.011Z,39.00
2022-12-27T13:40:16.158Z,38.00
2022-12-27T13:43:06.131Z,35.00
2022-12-27T13:45:44.987Z,37.00
2022-12-27T13:48:34.957Z,39.00
2022-12-27T13:51:24.842Z,32.50
2022-12-27T13:54:17.509Z,38.00
2022-12-27T13:56:58.718Z,36.50
2022-12-27T13:59:46.920Z,33.00
2022-12-27T14:02:21.224Z,35.00
2022-12-27T14:05:19.923Z,35.00
2022-12-27T14:08:04.539Z,34.00
2022-12-27T14:10:38.020Z,35.00
2022-12-27T14:13:10.778Z,34.00
2022-12-27T14:16:01.009Z,31.00
2022-12-27T14:19:23.086Z,35.00
2022-12-27T14:22:16.007Z,32.00
2022-12-27T14:24:56.472Z,34.00
2022-12-27T14:27:24.685Z,33.00
2022-12-27T14:30:17.081Z,31.67
2022-12-27T14:33:15.429Z,34.00
2022-12-27T14:36:25.551Z,33.00
2022-12-27T14:39:06.025Z,34.67
2022-12-27T14:42:02.571Z,35.00
2022-12-27T14:45:18.159Z,33.50
2022-12-27T14:48:09.977Z,34.00
2022-12-27T14:51:26.154Z,32.50
2022-12-27T14:54:27.989Z,34.00
2022-12-27T14:57:02.190Z,31.00
2022-12-27T14:59:42.846Z,33.33
2022-12-27T15:02:45.225Z,34.50
2022-12-27T15:05:33.404Z,33.00
2022-12-27T15:08:19.573Z,32.00
2022-12-27T15:11:18.818Z,30.00
2022-12-27T15:14:08.327Z,30.50
2022-12-27T15:16:39.610Z,33.50
2022-12-27T15:19:33.409Z,29.00
2022-12-27T15:22:10.298Z,29.50
2022-12-27T15:24:50.474Z,33.00
2022-12-27T15:27:28.584Z,32.00
2022-12-27T15:29:59.575Z,26.00
2022-12-27T15:32:33.504Z,29.00
2022-12-27T15:35:30.551Z,29.50
2022-12-27T15:38:13.471Z,29.50
2022-12-27T15:41:09.760Z,29.50
2022-12-27T15:43:43.975Z,30.00
2022-12-27T15:46:41.409Z,31.00
2022-12-27T15:49:09.667Z,22.00
2022-12-27T15:52:22.939Z,30.00
2022-12-27T15:54:53.846Z,28.50
2022-12-27T15:57:22.574Z,29.00
2022-12-27T15:59:53.142Z,29.00
2022-12-27T16:02:51.526Z,26.00
2022-12-27T16:05:19.847Z,29.67
2022-12-27T16:08:01.459Z,29.00
2022-12-27T16:10:32.578Z,23.50
2022-12-27T16:13:09.544Z,27.50
2022-12-27T16:15:45.001Z,24.00
2022-12-27T16:18:21.999Z,24.00
2022-12-27T16:21:13.452Z,25.50
2022-12-27T16:23:50.533Z,24.50
2022-12-27T16:26:28.834Z,23.33
2022-12-27T16:29:03.814Z,24.50
2022-12-27T16:31:34.323Z,28.00
2022-12-27T16:34:28.748Z,19.00
2022-12-27T16:37:01.140Z,29.00
2022-12-27T16:39:55.074Z,22.00
2022-12-27T16:43:01.476Z,23.00
2022-12-27T16:45:39.774Z,26.00
2022-12-27T16:48:33.792Z,27.00
2022-12-27T16:51:12.935Z,19.67
2022-12-27T16:53:56.993Z,26.00
2022-12-27T16:56:28.148Z,21.50
2022-12-27T16:58:57.329Z,26.00
2022-12-27T17:01:34.736Z,25.00
2022-12-27T17:04:03.894Z,26.00
2022-12-27T17:06:33.712Z,25.50
2022-12-27T17:09:08.559Z,26.00
2022-12-27T17:11:43.613Z,28.00
2022-12-27T17:14:17.420Z,27.33
2022-12-27T17:16:51.451Z,26.00
2022-12-27T17:19:24.322Z,29.00
2022-12-27T17:21:59.567Z,24.33
2022-12-27T17:24:28.003Z,24.50
2022-12-27T17:27:22.563Z,28.00
2022-12-27T17:30:44.394Z,29.00
2022-12-27T17:33:21.450Z,22.00
2022-12-27T17:36:17.627Z,23.00
2022-12-27T17:38:54.987Z,25.00
2022-12-27T17:42:03.340Z,25.00
2022-12-27T17:44:40.551Z,23.00
2022-12-27T17:47:15.413Z,19.00
2022-12-27T17:49:45.698Z,21.00
2022-12-27T17:52:37.351Z,18.50
2022-12-27T17:55:42.885Z,22.00
2022-12-27T17:58:17.131Z,20.33
2022-12-27T18:00:57.635Z,20.00
2022-12-27T18:03:36.140Z,19.67
2022-12-27T18:06:05.045Z,16.50
2022-12-27T18:08:36.552Z,16.50
2022-12-27T18:11:06.477Z,16.50
2022-12-27T18:13:38.905Z,17.00
2022-12-27T18:16:16.540Z,18.00
2022-12-27T18:18:49.996Z,16.00
2022-12-27T18:21:24.473Z,18.00
2022-12-27T18:23:53.993Z,19.00
2022-12-27T18:26:34.898Z,18.00
2022-12-27T18:29:03.904Z,18.33
2022-12-27T18:31:44.799Z,20.00
2022-12-27T18:34:31.559Z,16.75
2022-12-27T18:37:13.910Z,20.00
2022-12-27T18:39:55.740Z,19.67
2022-12-27T18:42:34.764Z,17.50
2022-12-27T18:45:22.676Z,17.00
2022-12-27T18:47:53.627Z,15.00
2022-12-27T18:50:27.545Z,15.67
2022-12-27T18:53:04.661Z,14.67
2022-12-27T18:55:33.373Z,16.00
2022-12-27T18:58:28.091Z,16.00
2022-12-27T19:01:21.133Z,17.00
2022-12-27T19:04:20.136Z,16.50
2022-12-27T19:06:57.260Z,18.00
2022-12-27T19:09:29.130Z,15.50
2022-12-27T19:12:02.030Z,15.33
2022-12-27T19:14:45.370Z,16.00
2022-12-27T19:17:30.829Z,13.50
2022-12-27T19:20:02.528Z,18.00
2022-12-27T19:22:41.250Z,16.00
2022-12-27T19:25:23.167Z,12.00
2022-12-27T19:28:02.170Z,14.00
2022-12-27T19:30:37.343Z,16.00
2022-12-27T19:33:13.164Z,17.00
2022-12-27T19:35:43.039Z,16.00
2022-12-27T19:38:22.082Z,13.00
2022-12-27T19:40:55.409Z,11.00
2022-12-27T19:43:27.228Z,8.00
2022-12-27T19:45:55.524Z,18.50
2022-12-27T19:48:23.755Z,13.00
2022-12-27T19:50:53.655Z,13.00
2022-12-27T19:53:28.318Z,13.00
2022-12-27T19:55:58.359Z,14.00
2022-12-27T19:58:28.328Z,13.00
2022-12-27T20:00:57.426Z,13.67
2022-12-27T20:03:26.077Z,14.00
2022-12-27T20:06:14.079Z,12.00
2022-12-27T20:08:46.662Z,13.67
2022-12-27T20:11:19.219Z,10.00
2022-12-27T20:13:48.285Z,13.67
2022-12-27T20:16:18.904Z,9.00
2022-12-27T20:18:47.489Z,10.75
2022-12-27T20:21:20.490Z,11.50
2022-12-27T20:23:48.938Z,10.00
2022-12-27T20:26:20.009Z,13.00
2022-12-27T20:28:48.988Z,11.50
2022-12-27T20:31:20.507Z,11.00
2022-12-27T20:33:53.493Z,12.00
2022-12-27T20:36:23.010Z,9.00
2022-12-27T20:38:51.458Z,10.33
2022-12-27T20:41:21.652Z,12.00
2022-12-27T20:43:57.129Z,9.67
2022-12-27T20:46:25.926Z,11.00
2022-12-27T20:48:55.902Z,9.50
2022-12-27T20:51:35.883Z,9.25
2022-12-27T20:54:04.481Z,11.50
2022-12-27T20:56:34.356Z,11.00
2022-12-27T20:59:02.827Z,10.50
2022-12-27T21:01:31.163Z,9.00
2022-12-27T21:03:59.580Z,10.00
2022-12-27T21:06:29.306Z,9.75
2022-12-27T21:08:58.678Z,6.00
2022-12-27T21:11:33.151Z,6.00
2022-12-27T21:14:03.105Z,9.50
2022-12-27T21:16:33.595Z,11.00
2022-12-27T21:19:03.663Z,9.00
2022-12-27T21:21:33.893Z,8.00
2022-12-27T21:24:02.847Z,7.33
2022-12-27T21:26:33.956Z,9.00
2022-12-27T21:29:05.194Z,7.33
2022-12-27T21:31:34.731Z,9.50
2022-12-27T21:34:04.417Z,7.50
2022-12-27T21:36:34.384Z,6.00
2022-12-27T21:39:02.992Z,7.00
2022-12-27T21:41:33.776Z,7.00
2022-12-27T21:44:02.328Z,8.00
2022-12-27T21:46:35.946Z,8.00
2022-12-27T21:49:07.201Z,7.33
2022-12-27T21:51:36.504Z,8.00
2022-12-27T21:54:04.958Z,8.50
2022-12-27T21:56:33.455Z,5.50
2022-12-27T21:59:03.283Z,7.00
2022-12-27T22:01:49.561Z,9.00
2022-12-27T22:04:20.752Z,8.00
2022-12-27T22:06:49.203Z,7.00
2022-12-27T22:09:19.534Z,7.00
2022-12-27T22:11:48.434Z,8.00
2022-12-27T22:14:18.725Z,6.00
2022-12-27T22:16:50.160Z,6.00
2022-12-27T22:19:18.466Z,8.00
2022-12-27T22:21:46.860Z,7.00
2022-12-27T22:24:19.726Z,6.50
2022-12-27T22:26:48.856Z,6.67
2022-12-27T22:29:17.948Z,7.00
2022-12-27T22:31:46.768Z,6.50
2022-12-27T22:34:15.063Z,4.75
2022-12-27T22:36:43.996Z,8.00
2022-12-27T22:39:12.291Z,5.00
2022-12-27T22:41:40.545Z,5.67
2022-12-27T22:44:12.201Z,4.50
2022-12-27T22:49:29.407Z,4.00
2022-12-27T22:51:57.747Z,6.00
2022-12-27T22:55:03.009Z,6.67
2022-12-27T22:57:14.182Z,5.50
2022-12-27T22:59:42.519Z,5.00
2022-12-27T23:02:10.843Z,4.00
2022-12-27T23:04:39.199Z,4.00
2022-12-27T23:07:07.616Z,4.50
2022-12-27T23:09:42.639Z,5.00
2022-12-27T23:12:12.103Z,5.00
2022-12-27T23:14:40.843Z,4.33
2022-12-27T23:17:09.099Z,4.33
2022-12-27T23:19:37.347Z,3.00
2022-12-27T23:22:05.767Z,6.00
2022-12-27T23:24:34.086Z,4.50
2022-12-27T23:27:03.498Z,4.00
2022-12-27T23:29:31.735Z,6.00
2022-12-27T23:32:00.108Z,5.00
2022-12-27T23:34:29.362Z,6.00
2022-12-27T23:36:58.896Z,4.67
2022-12-27T23:39:27.365Z,6.00
2022-12-27T23:41:55.782Z,4.25
2022-12-27T23:44:33.722Z,4.00
2022-12-27T23:47:05.632Z,5.00
2022-12-27T23:49:34.841Z,5.00
2022-12-27T23:52:03.722Z,3.67
2022-12-27T23:54:32.022Z,3.67
2022-12-27T23:57:20.067Z,3.75
2022-12-27T23:59:49.670Z,3.67
